Time;durP1;ratioP1;P1;durP2;ratioP2;P2;SDS_P1;SDS_P2;PMS_P1;PMS_P2;Temp;Humidity;BMP_temperature;BMP_pressure;BME280_temperature;BME280_humidity;BME280_pressure;Samples;Min_cycle;Max_cycle;Signal;HPM_P1;HPM_P2
2022/04/21 00:00:14;;;;;;;2.60;1.88;;;;;;;;;;4989809;28;20032;-70
2022/04/21 00:02:41;;;;;;;2.15;1.80;;;;;;;;;;4993677;28;20026;-70
2022/04/21 00:05:07;;;;;;;1.88;1.73;;;;;;;;;;4993601;28;20488;-70
2022/04/21 00:07:34;;;;;;;2.72;1.80;;;;;;;;;;4993166;28;20034;-70
2022/04/21 00:10:00;;;;;;;3.88;1.70;;;;;;;;;;4993737;28;20431;-70
2022/04/21 00:12:28;;;;;;;1.95;1.55;;;;;;;;;;4994151;28;20396;-70
2022/04/21 00:14:54;;;;;;;2.35;1.67;;;;;;;;;;4993764;28;20029;-70
2022/04/21 00:17:21;;;;;;;1.90;1.70;;;;;;;;;;4993492;28;20381;-70
2022/04/21 00:19:47;;;;;;;1.60;1.42;;;;;;;;;;4993396;28;20084;-70
2022/04/21 00:24:58;;;;;;;2.35;1.85;;;;;;;;;;4993474;28;20030;-70
2022/04/21 00:27:24;;;;;;;2.67;1.83;;;;;;;;;;4993551;28;20038;-70
2022/04/21 00:29:51;;;;;;;2.67;1.83;;;;;;;;;;4999066;28;20089;-70
2022/04/21 00:32:17;;;;;;;2.28;1.60;;;;;;;;;;4986617;28;20476;-70
2022/04/21 00:34:44;;;;;;;2.20;1.55;;;;;;;;;;4993165;28;20029;-70
2022/04/21 00:37:11;;;;;;;5.25;1.85;;;;;;;;;;4977390;28;20053;-70
2022/04/21 00:39:38;;;;;;;1.98;1.77;;;;;;;;;;4989806;28;20015;-70
2022/04/21 00:42:05;;;;;;;2.25;1.95;;;;;;;;;;4990258;28;20026;-70
2022/04/21 00:44:33;;;;;;;5.43;2.10;;;;;;;;;;4988137;28;20104;-70
2022/04/21 00:47:02;;;;;;;3.08;2.35;;;;;;;;;;4987968;28;20081;-70
2022/04/21 00:49:29;;;;;;;5.55;2.30;;;;;;;;;;5007751;28;20516;-70
2022/04/21 00:51:56;;;;;;;4.63;2.55;;;;;;;;;;4992582;28;20030;-70
2022/04/21 00:54:23;;;;;;;3.00;2.70;;;;;;;;;;4991636;28;20025;-70
2022/04/21 00:56:50;;;;;;;3.00;2.70;;;;;;;;;;4992692;28;20048;-70
2022/04/21 00:59:16;;;;;;;4.25;3.20;;;;;;;;;;4992345;28;20022;-70
2022/04/21 01:04:28;;;;;;;6.22;3.03;;;;;;;;;;4977564;28;20572;-70
2022/04/21 01:06:56;;;;;;;4.03;2.72;;;;;;;;;;4990274;28;20041;-70
2022/04/21 01:09:22;;;;;;;3.67;2.90;;;;;;;;;;4992822;28;20208;-70
2022/04/21 01:11:50;;;;;;;3.97;2.42;;;;;;;;;;4992205;28;20030;-70
2022/04/21 01:14:16;;;;;;;5.30;2.50;;;;;;;;;;5003113;28;20037;-70
2022/04/21 01:17:01;;;;;;;4.13;2.58;;;;;;;;;;4998056;28;20034;-70
2022/04/21 01:19:45;;;;;;;2.83;2.35;;;;;;;;;;4989600;28;20015;-70
2022/04/21 01:22:31;;;;;;;2.53;2.08;;;;;;;;;;4992186;28;20034;-70
2022/04/21 01:24:58;;;;;;;1.98;1.83;;;;;;;;;;4992723;28;20022;-70
2022/04/21 01:27:26;;;;;;;3.17;2.13;;;;;;;;;;4992504;28;20048;-70
2022/04/21 01:29:58;;;;;;;4.22;2.13;;;;;;;;;;4991674;28;20395;-70
2022/04/21 01:32:25;;;;;;;2.30;2.10;;;;;;;;;;5001639;28;20035;-70
2022/04/21 01:34:53;;;;;;;1.92;1.77;;;;;;;;;;4979311;28;20030;-70
2022/04/21 01:43:44;;;;;;;2.67;2.33;;;;;;;;;;4980802;28;20037;-71
2022/04/21 01:46:29;;;;;;;3.90;1.77;;;;;;;;;;4991921;28;20148;-70
2022/04/21 01:49:14;;;;;;;2.40;1.75;;;;;;;;;;4976576;28;20034;-70
2022/04/21 01:51:58;;;;;;;2.20;1.95;;;;;;;;;;5001706;28;20126;-70
2022/04/21 01:54:28;;;;;;;2.20;1.95;;;;;;;;;;4992320;28;20463;-70
2022/04/21 01:57:12;;;;;;;2.20;2.00;;;;;;;;;;4992071;28;20057;-70
2022/04/21 01:59:57;;;;;;;2.05;1.92;;;;;;;;;;4991761;28;20530;-70
2022/04/21 02:02:41;;;;;;;2.85;2.15;;;;;;;;;;4991930;28;20057;-70
2022/04/21 02:05:08;;;;;;;2.83;2.15;;;;;;;;;;4991461;28;20034;-70
2022/04/21 02:07:52;;;;;;;3.42;2.53;;;;;;;;;;4991946;28;20081;-70
2022/04/21 02:10:37;;;;;;;2.20;2.00;;;;;;;;;;4992044;28;20053;-70
2022/04/21 02:13:21;;;;;;;2.72;2.30;;;;;;;;;;4978006;28;20400;-70
2022/04/21 02:16:06;;;;;;;3.50;2.35;;;;;;;;;;4991800;28;20093;-70
2022/04/21 02:18:50;;;;;;;2.35;2.15;;;;;;;;;;4989092;28;20026;-70
2022/04/21 02:21:17;;;;;;;2.78;2.20;;;;;;;;;;4987651;28;20034;-70
2022/04/21 02:24:01;;;;;;;2.50;1.90;;;;;;;;;;4987395;28;20029;-70
2022/04/21 02:26:27;;;;;;;3.50;2.20;;;;;;;;;;4987353;28;20045;-70
2022/04/21 02:28:59;;;;;;;3.35;2.20;;;;;;;;;;4987111;28;20022;-71
2022/04/21 02:31:25;;;;;;;2.17;1.98;;;;;;;;;;4989761;28;20034;-70
2022/04/21 02:33:51;;;;;;;2.20;2.00;;;;;;;;;;4988937;28;20022;-71
2022/04/21 02:36:18;;;;;;;2.78;1.77;;;;;;;;;;4987621;28;20037;-71
2022/04/21 02:38:44;;;;;;;5.03;1.90;;;;;;;;;;4991337;28;20480;-70
2022/04/21 02:41:10;;;;;;;2.20;2.00;;;;;;;;;;4991754;28;20030;-70
2022/04/21 02:43:37;;;;;;;2.38;2.17;;;;;;;;;;4991511;28;20030;-70
2022/04/21 02:46:04;;;;;;;5.20;2.22;;;;;;;;;;4991335;28;20035;-70
2022/04/21 02:48:30;;;;;;;3.28;2.28;;;;;;;;;;4991627;28;20031;-70
2022/04/21 02:50:57;;;;;;;3.00;2.33;;;;;;;;;;4991240;28;20049;-70
2022/04/21 02:57:20;;;;;;;2.22;1.92;;;;;;;;;;4991050;28;20019;-70
2022/04/21 02:58:54;;;;;;;4.05;2.10;;;;;;;;;;4986712;28;20038;-70
2022/04/21 03:01:21;;;;;;;1.88;1.77;;;;;;;;;;4989967;28;20068;-70
2022/04/21 03:03:47;;;;;;;2.13;1.92;;;;;;;;;;4988749;28;20037;-70
2022/04/21 03:06:13;;;;;;;2.95;2.10;;;;;;;;;;4987296;28;20406;-70
2022/04/21 03:08:40;;;;;;;2.83;2.38;;;;;;;;;;4987712;28;20024;-70
2022/04/21 03:11:06;;;;;;;2.75;1.90;;;;;;;;;;4990410;28;20014;-70
2022/04/21 03:13:32;;;;;;;3.28;2.25;;;;;;;;;;4991793;28;20025;-70
2022/04/21 03:15:59;;;;;;;2.38;2.17;;;;;;;;;;4993407;28;20048;-70
2022/04/21 03:18:25;;;;;;;4.15;2.60;;;;;;;;;;5004800;28;20033;-70
2022/04/21 03:26:22;;;;;;;2.53;2.33;;;;;;;;;;4990149;28;20035;-71
2022/04/21 03:28:48;;;;;;;2.00;1.90;;;;;;;;;;4989917;28;20019;-70
2022/04/21 03:31:14;;;;;;;2.30;2.10;;;;;;;;;;4993688;28;20019;-70
2022/04/21 03:33:41;;;;;;;1.80;1.70;;;;;;;;;;4990944;28;20030;-70
2022/04/21 03:36:07;;;;;;;2.67;1.77;;;;;;;;;;4990064;28;20026;-70
2022/04/21 03:38:37;;;;;;;2.78;1.80;;;;;;;;;;4989999;28;20033;-70
2022/04/21 03:41:04;;;;;;;2.75;1.80;;;;;;;;;;4989618;28;20031;-71
2022/04/21 03:43:31;;;;;;;1.98;1.77;;;;;;;;;;4991379;28;20035;-72
2022/04/21 03:45:57;;;;;;;2.85;2.20;;;;;;;;;;4992156;28;20496;-70
2022/04/21 03:48:23;;;;;;;2.15;1.83;;;;;;;;;;4990620;28;20159;-70
2022/04/21 03:50:50;;;;;;;2.80;1.83;;;;;;;;;;4989636;28;20030;-70
2022/04/21 03:53:16;;;;;;;2.53;2.03;;;;;;;;;;4989484;28;20513;-70
2022/04/21 03:55:42;;;;;;;2.20;2.00;;;;;;;;;;4994067;28;20018;-70
2022/04/21 03:58:09;;;;;;;3.10;2.20;;;;;;;;;;4978120;28;20446;-70
2022/04/21 04:00:35;;;;;;;4.00;1.92;;;;;;;;;;5005051;28;20027;-70
2022/04/21 04:03:01;;;;;;;2.53;2.10;;;;;;;;;;4993643;28;20899;-70
2022/04/21 04:05:28;;;;;;;3.22;2.00;;;;;;;;;;4993732;28;20035;-70
2022/04/21 04:10:52;;;;;;;2.40;2.00;;;;;;;;;;4993456;28;20033;-70
2022/04/21 04:13:27;;;;;;;2.45;2.20;;;;;;;;;;4993819;28;20022;-70
2022/04/21 04:15:54;;;;;;;2.13;1.90;;;;;;;;;;4993600;28;20030;-71
2022/04/21 04:18:21;;;;;;;2.63;2.42;;;;;;;;;;4993949;28;20030;-70
2022/04/21 04:20:47;;;;;;;2.35;2.15;;;;;;;;;;4993159;28;20088;-70
2022/04/21 04:23:14;;;;;;;2.65;2.20;;;;;;;;;;4993466;28;20026;-70
2022/04/21 04:25:41;;;;;;;2.67;2.47;;;;;;;;;;4993305;28;20022;-70
2022/04/21 04:28:07;;;;;;;2.67;2.42;;;;;;;;;;4993144;28;20042;-70
2022/04/21 04:30:34;;;;;;;2.58;2.38;;;;;;;;;;4993989;28;20026;-70
2022/04/21 04:33:01;;;;;;;3.67;2.45;;;;;;;;;;4993153;28;20034;-70
2022/04/21 04:35:29;;;;;;;3.05;2.67;;;;;;;;;;4993038;28;20030;-71
2022/04/21 04:37:55;;;;;;;2.88;2.58;;;;;;;;;;4992964;28;20491;-70
2022/04/21 04:40:22;;;;;;;3.22;2.90;;;;;;;;;;5008304;28;20026;-70
2022/04/21 04:42:48;;;;;;;4.03;2.75;;;;;;;;;;4992640;28;20023;-71
2022/04/21 04:48:00;;;;;;;3.35;2.70;;;;;;;;;;4992873;28;20423;-70
2022/04/21 04:50:27;;;;;;;3.30;3.00;;;;;;;;;;4992714;28;20487;-70
2022/04/21 04:52:58;;;;;;;3.60;2.83;;;;;;;;;;4992813;28;20036;-70
2022/04/21 04:55:24;;;;;;;;;;;;;;;;;;4992938;28;20096;-70
2022/04/21 04:57:51;;;;;;;3.95;3.10;;;;;;;;;;4992341;28;19916;-71
2022/04/21 05:00:18;;;;;;;3.45;3.00;;;;;;;;;;4992946;28;20442;-70
2022/04/21 05:02:44;;;;;;;5.13;3.00;;;;;;;;;;4992433;28;20029;-70
2022/04/21 05:05:14;;;;;;;4.32;3.08;;;;;;;;;;4992529;28;20434;-70
2022/04/21 05:07:40;;;;;;;3.50;3.20;;;;;;;;;;4992362;28;20026;-70
2022/04/21 05:10:07;;;;;;;4.30;3.03;;;;;;;;;;4992320;28;20060;-70
2022/04/21 05:12:33;;;;;;;3.47;3.00;;;;;;;;;;4992737;28;20487;-70
2022/04/21 05:15:00;;;;;;;3.50;3.20;;;;;;;;;;4992380;28;20029;-70
2022/04/21 05:17:27;;;;;;;3.10;2.83;;;;;;;;;;4992468;28;20034;-70
2022/04/21 05:19:54;;;;;;;3.80;2.97;;;;;;;;;;4992317;28;20411;-70
2022/04/21 05:22:26;;;;;;;3.88;3.35;;;;;;;;;;4992297;28;20021;-70
2022/04/21 05:24:52;;;;;;;3.28;2.97;;;;;;;;;;4992622;28;20038;-69
2022/04/21 05:27:19;;;;;;;3.35;3.05;;;;;;;;;;4992164;28;20057;-70
2022/04/21 05:32:35;;;;;;;4.22;3.22;;;;;;;;;;4991564;28;20036;-71
2022/04/21 05:35:02;;;;;;;3.75;3.40;;;;;;;;;;4992040;28;20026;-70
2022/04/21 05:37:29;;;;;;;5.10;3.20;;;;;;;;;;5007195;28;20030;-70
2022/04/21 05:39:55;;;;;;;4.22;3.50;;;;;;;;;;4992020;28;20089;-70
2022/04/21 05:42:23;;;;;;;3.20;2.90;;;;;;;;;;4990177;28;20539;-70
2022/04/21 05:44:51;;;;;;;3.28;2.97;;;;;;;;;;4991883;28;20053;-70
2022/04/21 05:47:17;;;;;;;3.35;3.05;;;;;;;;;;4991829;28;20030;-71
2022/04/21 05:49:44;;;;;;;3.40;3.10;;;;;;;;;;4991865;28;20484;-70
2022/04/21 05:52:12;;;;;;;4.68;2.75;;;;;;;;;;4976440;28;20487;-71
2022/04/21 05:54:38;;;;;;;4.90;2.72;;;;;;;;;;4988645;28;20022;-70
2022/04/21 05:57:05;;;;;;;3.75;3.05;;;;;;;;;;4987260;28;20030;-70
2022/04/21 05:59:32;;;;;;;3.85;3.28;;;;;;;;;;4987275;28;20030;-70
2022/04/21 06:01:59;;;;;;;3.50;3.17;;;;;;;;;;4987309;28;20088;-71
2022/04/21 06:04:25;;;;;;;3.38;2.83;;;;;;;;;;4989934;28;20018;-71
2022/04/21 06:06:52;;;;;;;3.28;2.90;;;;;;;;;;5003292;28;20046;-71
2022/04/21 06:09:19;;;;;;;2.83;2.58;;;;;;;;;;4987826;28;20026;-69
2022/04/21 06:11:46;;;;;;;3.08;2.63;;;;;;;;;;4986286;28;20034;-71
2022/04/21 06:14:12;;;;;;;3.33;2.42;;;;;;;;;;4987233;28;20041;-71
2022/04/21 06:16:38;;;;;;;2.50;2.25;;;;;;;;;;4988337;28;20019;-71
2022/04/21 06:19:05;;;;;;;3.17;2.50;;;;;;;;;;4990758;28;20044;-71
2022/04/21 06:21:31;;;;;;;2.40;2.20;;;;;;;;;;4987463;28;20034;-71
2022/04/21 06:23:57;;;;;;;4.60;2.80;;;;;;;;;;4986293;28;20418;-70
2022/04/21 06:26:25;;;;;;;2.08;1.70;;;;;;;;;;4986904;28;20041;-70
2022/04/21 06:28:57;;;;;;;2.45;2.22;;;;;;;;;;4987026;28;20054;-70
2022/04/21 06:31:23;;;;;;;2.38;2.00;;;;;;;;;;4990653;28;20384;-70
2022/04/21 06:33:49;;;;;;;2.10;1.52;;;;;;;;;;4991317;28;20399;-70
2022/04/21 06:36:16;;;;;;;2.40;1.98;;;;;;;;;;4991515;28;20092;-70
2022/04/21 06:38:43;;;;;;;2.00;1.80;;;;;;;;;;4990998;28;20076;-71
2022/04/21 06:41:11;;;;;;;3.85;2.13;;;;;;;;;;4991188;28;20045;-70
2022/04/21 06:49:08;;;;;;;2.67;2.35;;;;;;;;;;4994858;28;20037;-70
2022/04/21 06:51:34;;;;;;;3.60;2.58;;;;;;;;;;4995713;28;20030;-70
2022/04/21 06:54:01;;;;;;;2.97;2.33;;;;;;;;;;4993136;28;20072;-70
2022/04/21 06:56:27;;;;;;;19.30;12.95;;;;;;;;;;4993298;28;20022;-70
2022/04/21 06:58:55;;;;;;;19.92;12.32;;;;;;;;;;4994468;28;20088;-71
2022/04/21 07:01:22;;;;;;;65.28;18.90;;;;;;;;;;5009538;28;20018;-71
2022/04/21 07:03:48;;;;;;;17.05;6.78;;;;;;;;;;4994244;28;20037;-70
2022/04/21 07:06:15;;;;;;;2.88;2.10;;;;;;;;;;4994605;28;20046;-71
2022/04/21 07:08:41;;;;;;;24.70;7.45;;;;;;;;;;4993645;28;20025;-70
2022/04/21 07:11:08;;;;;;;25.75;8.18;;;;;;;;;;4994592;28;20026;-71
2022/04/21 07:13:34;;;;;;;7.75;3.42;;;;;;;;;;4993307;28;20026;-70
2022/04/21 07:16:00;;;;;;;18.27;8.02;;;;;;;;;;5008697;28;20029;-71
2022/04/21 07:18:27;;;;;;;25.20;10.98;;;;;;;;;;4990992;28;20032;-70
2022/04/21 07:20:53;;;;;;;20.35;9.55;;;;;;;;;;4993448;28;20034;-70
2022/04/21 07:23:19;;;;;;;3.25;2.67;;;;;;;;;;4993033;28;20402;-70
2022/04/21 07:25:46;;;;;;;1.65;1.55;;;;;;;;;;4993528;28;20415;-71
2022/04/21 07:28:12;;;;;;;3.78;2.00;;;;;;;;;;4993747;28;20398;-71
2022/04/21 07:30:39;;;;;;;2.00;1.60;;;;;;;;;;4994064;28;20026;-70
2022/04/21 07:33:05;;;;;;;2.95;1.70;;;;;;;;;;4994239;28;20398;-70
2022/04/21 07:35:33;;;;;;;3.35;2.40;;;;;;;;;;4988405;28;20038;-70
2022/04/21 07:38:00;;;;;;;2.00;1.50;;;;;;;;;;4992166;28;20019;-70
2022/04/21 07:40:26;;;;;;;2.05;1.88;;;;;;;;;;4989103;28;20092;-70
2022/04/21 07:42:53;;;;;;;13.02;3.92;;;;;;;;;;4992844;28;20015;-71
2022/04/21 07:45:20;;;;;;;2.60;1.60;;;;;;;;;;5005835;28;20097;-71
2022/04/21 07:47:47;;;;;;;1.60;1.50;;;;;;;;;;4991198;28;20513;-70
2022/04/21 07:50:13;;;;;;;2.30;1.80;;;;;;;;;;4992678;28;20022;-70
2022/04/21 07:55:26;;;;;;;2.47;2.03;;;;;;;;;;4978109;28;20021;-70
2022/04/21 07:57:53;;;;;;;2.00;1.80;;;;;;;;;;4992583;28;20035;-71
2022/04/21 08:00:20;;;;;;;10.02;2.38;;;;;;;;;;4996004;28;20030;-70
2022/04/21 08:02:47;;;;;;;2.03;1.88;;;;;;;;;;4988200;28;20015;-71
2022/04/21 08:05:14;;;;;;;4.70;1.90;;;;;;;;;;4987887;28;20026;-71
2022/04/21 08:07:41;;;;;;;2.40;1.60;;;;;;;;;;4988237;28;20031;-71
2022/04/21 08:10:09;;;;;;;1.85;1.75;;;;;;;;;;4991720;28;20022;-71
2022/04/21 08:12:42;;;;;;;2.92;1.75;;;;;;;;;;4992877;28;20026;-71
2022/04/21 08:15:29;;;;;;;2.45;2.00;;;;;;;;;;4988173;28;20411;-70
2022/04/21 08:17:56;;;;;;;3.03;2.00;;;;;;;;;;4987432;28;20036;-70
2022/04/21 08:20:23;;;;;;;3.85;1.95;;;;;;;;;;4988562;28;20058;-70
2022/04/21 08:22:49;;;;;;;3.33;2.22;;;;;;;;;;4997824;28;20015;-70
2022/04/21 08:33:32;;;;;;;4.15;2.20;;;;;;;;;;4988083;28;20032;-70
2022/04/21 08:35:59;;;;;;;3.42;1.83;;;;;;;;;;4987305;28;20026;-70
2022/04/21 08:38:27;;;;;;;4.43;1.75;;;;;;;;;;4987329;28;20057;-70
2022/04/21 08:40:53;;;;;;;2.47;1.80;;;;;;;;;;4987302;28;20031;-70
2022/04/21 08:43:20;;;;;;;1.90;1.70;;;;;;;;;;4990630;28;20072;-70
2022/04/21 08:45:47;;;;;;;2.35;2.00;;;;;;;;;;4987955;28;20038;-70
2022/04/21 08:48:15;;;;;;;2.38;2.00;;;;;;;;;;4986529;28;20034;-70
2022/04/21 08:50:42;;;;;;;1.70;1.60;;;;;;;;;;4987059;28;20073;-69
2022/04/21 08:53:10;;;;;;;2.25;2.00;;;;;;;;;;4987083;28;20029;-69
2022/04/21 08:55:37;;;;;;;2.38;1.90;;;;;;;;;;4988486;28;20026;-69
2022/04/21 08:58:04;;;;;;;4.70;2.17;;;;;;;;;;4990676;28;20438;-70
2022/04/21 09:00:31;;;;;;;2.13;1.92;;;;;;;;;;4987403;28;20080;-69
2022/04/21 09:02:58;;;;;;;2.72;2.15;;;;;;;;;;4984722;28;20022;-70
2022/04/21 09:05:27;;;;;;;4.88;2.30;;;;;;;;;;4986917;28;20048;-69
2022/04/21 09:07:54;;;;;;;3.33;2.22;;;;;;;;;;4990800;28;20135;-70
2022/04/21 09:10:21;;;;;;;3.08;2.60;;;;;;;;;;4991116;28;20377;-70
2022/04/21 09:12:52;;;;;;;2.92;2.10;;;;;;;;;;4991754;28;20030;-70
2022/04/21 09:15:18;;;;;;;;;;;;;;;;;;4987909;28;20035;-69
2022/04/21 09:17:51;;;;;;;3.83;2.70;;;;;;;;;;4987222;28;19909;-70
2022/04/21 09:20:18;;;;;;;5.13;3.20;;;;;;;;;;4987008;28;20053;-69
2022/04/21 09:22:57;;;;;;;2.47;2.05;;;;;;;;;;4987231;28;20033;-70
2022/04/21 09:25:28;;;;;;;2.45;2.25;;;;;;;;;;4975372;28;20014;-70
2022/04/21 09:27:54;;;;;;;3.63;2.80;;;;;;;;;;4989223;28;20042;-70
2022/04/21 09:30:21;;;;;;;3.00;2.70;;;;;;;;;;4986972;28;20037;-69
2022/04/21 09:32:58;;;;;;;3.50;3.13;;;;;;;;;;4986395;28;20048;-69
2022/04/21 09:35:29;;;;;;;5.60;2.58;;;;;;;;;;4986896;28;20030;-70
2022/04/21 09:37:56;;;;;;;3.90;2.63;;;;;;;;;;4990869;28;20040;-69
2022/04/21 09:40:23;;;;;;;5.78;2.60;;;;;;;;;;4990567;28;20033;-69
2022/04/21 09:42:59;;;;;;;5.63;3.03;;;;;;;;;;4988062;28;20026;-70
2022/04/21 09:48:19;;;;;;;3.80;2.83;;;;;;;;;;4991049;28;20049;-70
2022/04/21 09:50:49;;;;;;;6.18;2.25;;;;;;;;;;4989188;28;20036;-70
2022/04/21 09:53:17;;;;;;;4.35;2.13;;;;;;;;;;4989508;28;20025;-71
2022/04/21 09:55:44;;;;;;;6.32;2.40;;;;;;;;;;4986602;28;20430;-70
2022/04/21 09:58:10;;;;;;;3.65;2.60;;;;;;;;;;4990115;28;20037;-70
2022/04/21 10:00:37;;;;;;;2.75;2.20;;;;;;;;;;4997521;28;20026;-71
2022/04/21 10:03:05;;;;;;;3.00;1.55;;;;;;;;;;4986130;28;20030;-71
2022/04/21 10:05:35;;;;;;;2.42;1.75;;;;;;;;;;4986496;28;20029;-70
2022/04/21 10:08:03;;;;;;;2.47;1.83;;;;;;;;;;5005826;28;20026;-70
2022/04/21 10:10:30;;;;;;;1.60;1.50;;;;;;;;;;4985958;28;20025;-70
2022/04/21 10:12:57;;;;;;;2.08;1.50;;;;;;;;;;4989311;28;20043;-71
2022/04/21 10:15:24;;;;;;;1.70;1.60;;;;;;;;;;4991206;28;20480;-70
2022/04/21 10:17:51;;;;;;;2.03;1.70;;;;;;;;;;4990925;28;20022;-72
2022/04/21 10:20:17;;;;;;;7.80;2.00;;;;;;;;;;4994159;28;20037;-70
2022/04/21 10:22:45;;;;;;;6.55;1.80;;;;;;;;;;4993963;28;20133;-69
2022/04/21 10:25:12;;;;;;;3.72;1.98;;;;;;;;;;4994802;28;20026;-70
2022/04/21 10:27:42;;;;;;;2.17;1.77;;;;;;;;;;4995133;28;20035;-69
2022/04/21 10:30:12;;;;;;;4.72;1.70;;;;;;;;;;4994729;28;20036;-70
2022/04/21 10:32:58;;;;;;;3.90;1.70;;;;;;;;;;5002149;28;20031;-69
2022/04/21 10:35:28;;;;;;;6.75;2.15;;;;;;;;;;4988390;28;20502;-71
2022/04/21 10:38:13;;;;;;;6.60;2.20;;;;;;;;;;4994172;28;20022;-71
2022/04/21 10:40:55;;;;;;;1.60;1.40;;;;;;;;;;4994195;28;20030;-71
2022/04/21 10:43:22;;;;;;;2.38;1.60;;;;;;;;;;4980552;28;20015;-71
2022/04/21 10:46:11;;;;;;;1.60;1.50;;;;;;;;;;4993948;28;20050;-71
2022/04/21 10:48:41;;;;;;;1.60;1.50;;;;;;;;;;4994840;28;20426;-71
2022/04/21 10:51:08;;;;;;;4.10;1.70;;;;;;;;;;4990105;28;20028;-71
2022/04/21 10:57:12;;;;;;;1.70;1.60;;;;;;;;;;4990855;28;20026;-71
2022/04/21 10:59:31;;;;;;;3.67;1.88;;;;;;;;;;4990146;28;20141;-71
2022/04/21 11:02:17;;;;;;;2.47;1.80;;;;;;;;;;4990573;28;20030;-71
2022/04/21 11:04:44;;;;;;;1.75;1.60;;;;;;;;;;4994740;28;20023;-71
2022/04/21 11:07:11;;;;;;;3.78;2.25;;;;;;;;;;4994232;28;20036;-71
2022/04/21 11:09:37;;;;;;;1.90;1.75;;;;;;;;;;4995225;28;20049;-71
2022/04/21 11:12:05;;;;;;;3.30;2.40;;;;;;;;;;4994449;28;20036;-71
2022/04/21 11:14:32;;;;;;;5.22;2.10;;;;;;;;;;4994565;28;20034;-71
2022/04/21 11:16:59;;;;;;;2.92;2.20;;;;;;;;;;4994666;28;20026;-71
2022/04/21 11:19:40;;;;;;;2.55;2.03;;;;;;;;;;4994736;28;20026;-71
2022/04/21 11:22:07;;;;;;;2.45;1.98;;;;;;;;;;4994764;28;20030;-71
2022/04/21 11:24:52;;;;;;;4.15;1.98;;;;;;;;;;4994999;28;20450;-71
2022/04/21 11:27:19;;;;;;;3.83;1.90;;;;;;;;;;4989894;28;20053;-71
2022/04/21 11:29:46;;;;;;;3.72;1.90;;;;;;;;;;4989030;28;20021;-71
2022/04/21 11:32:16;;;;;;;2.20;1.73;;;;;;;;;;4989921;28;20083;-71
2022/04/21 11:34:42;;;;;;;1.88;1.77;;;;;;;;;;4990507;28;20056;-71
2022/04/21 11:37:09;;;;;;;1.92;1.48;;;;;;;;;;4994128;28;20022;-71
2022/04/21 11:39:38;;;;;;;2.63;2.00;;;;;;;;;;4990720;28;20026;-71
2022/04/21 11:42:05;;;;;;;3.83;2.08;;;;;;;;;;4989958;28;20037;-71
2022/04/21 11:44:31;;;;;;;5.80;4.45;;;;;;;;;;4993678;28;20042;-72
2022/04/21 11:46:59;;;;;;;7.75;3.10;;;;;;;;;;4994068;28;20026;-71
2022/04/21 11:49:26;;;;;;;2.35;1.90;;;;;;;;;;4994504;28;20026;-71
2022/04/21 11:51:52;;;;;;;3.85;1.98;;;;;;;;;;4994047;28;20026;-72
2022/04/21 11:54:19;;;;;;;5.70;2.28;;;;;;;;;;4994320;28;20092;-71
2022/04/21 11:56:51;;;;;;;6.80;2.40;;;;;;;;;;4993893;28;20030;-72
2022/04/21 11:59:18;;;;;;;4.78;1.70;;;;;;;;;;4993762;28;20080;-72
2022/04/21 12:07:18;;;;;;;2.45;1.88;;;;;;;;;;4978518;28;20045;-72
2022/04/21 12:09:50;;;;;;;2.70;2.30;;;;;;;;;;4994075;28;20028;-72
2022/04/21 12:12:20;;;;;;;4.25;2.03;;;;;;;;;;4996546;28;20506;-72
2022/04/21 12:14:47;;;;;;;2.58;2.00;;;;;;;;;;4990857;28;20487;-72
2022/04/21 12:17:13;;;;;;;3.42;2.25;;;;;;;;;;5005136;28;20044;-72
2022/04/21 12:19:40;;;;;;;2.45;2.00;;;;;;;;;;4981812;28;20026;-72
2022/04/21 12:22:09;;;;;;;4.45;2.17;;;;;;;;;;4993333;28;20041;-72
2022/04/21 12:24:37;;;;;;;2.28;1.98;;;;;;;;;;4993996;28;20031;-72
2022/04/21 12:27:05;;;;;;;3.20;2.20;;;;;;;;;;4987588;28;20038;-72
2022/04/21 12:29:32;;;;;;;3.72;2.20;;;;;;;;;;4988974;28;20503;-72
2022/04/21 12:32:02;;;;;;;2.88;2.58;;;;;;;;;;4988787;28;20439;-72
2022/04/21 12:34:30;;;;;;;3.00;2.60;;;;;;;;;;4991374;28;20023;-72
2022/04/21 12:36:58;;;;;;;4.28;2.20;;;;;;;;;;4991662;28;20018;-72
2022/04/21 12:39:25;;;;;;;3.17;2.75;;;;;;;;;;4991765;28;20038;-72
2022/04/21 12:41:52;;;;;;;8.23;5.78;;;;;;;;;;4992869;28;20357;-72
2022/04/21 12:44:22;;;;;;;4.75;3.28;;;;;;;;;;4992870;28;20050;-72
2022/04/21 12:46:58;;;;;;;3.05;2.65;;;;;;;;;;4992836;28;20022;-72
2022/04/21 12:49:42;;;;;;;4.03;2.85;;;;;;;;;;4992956;28;20034;-72
2022/04/21 12:52:09;;;;;;;3.03;2.35;;;;;;;;;;4992810;28;20010;-72
2022/04/21 12:54:38;;;;;;;3.78;2.42;;;;;;;;;;4992177;28;20045;-72
2022/04/21 12:57:07;;;;;;;7.45;2.55;;;;;;;;;;4992738;28;20030;-72
2022/04/21 12:59:33;;;;;;;4.47;2.17;;;;;;;;;;4992698;28;20022;-72
2022/04/21 13:02:00;;;;;;;3.55;2.20;;;;;;;;;;4992667;28;20038;-72
2022/04/21 13:04:26;;;;;;;3.33;2.20;;;;;;;;;;4992974;28;20034;-72
2022/04/21 13:06:52;;;;;;;3.25;2.35;;;;;;;;;;4992705;28;20533;-72
2022/04/21 13:09:19;;;;;;;7.57;5.00;;;;;;;;;;4993230;28;20031;-72
2022/04/21 13:11:45;;;;;;;2.63;2.10;;;;;;;;;;4992153;28;20029;-72
2022/04/21 13:14:11;;;;;;;4.07;2.38;;;;;;;;;;4992536;28;20019;-72
2022/04/21 13:16:38;;;;;;;4.15;2.55;;;;;;;;;;4992473;28;20034;-72
2022/04/21 13:19:04;;;;;;;6.85;2.65;;;;;;;;;;4992458;28;20454;-72
2022/04/21 13:24:15;;;;;;;4.68;2.50;;;;;;;;;;4987403;28;20034;-72
2022/04/21 13:26:41;;;;;;;4.88;3.20;;;;;;;;;;4987719;28;20398;-72
2022/04/21 13:29:08;;;;;;;6.57;4.53;;;;;;;;;;4988029;28;20030;-72
2022/04/21 13:34:19;;;;;;;10.25;4.32;;;;;;;;;;4977016;28;20365;-72
2022/04/21 13:36:45;;;;;;;4.85;3.70;;;;;;;;;;4989220;28;20029;-72
2022/04/21 13:39:12;;;;;;;8.15;4.40;;;;;;;;;;4992331;28;20035;-72
2022/04/21 13:41:38;;;;;;;4.53;3.47;;;;;;;;;;4992379;28;20033;-72
2022/04/21 13:44:05;;;;;;;4.97;2.50;;;;;;;;;;4991833;28;20035;-72
2022/04/21 13:46:34;;;;;;;8.73;4.70;;;;;;;;;;4992306;28;20034;-72
2022/04/21 13:49:00;;;;;;;5.93;3.25;;;;;;;;;;4991106;28;20045;-72
2022/04/21 13:51:26;;;;;;;2.67;2.40;;;;;;;;;;4992266;28;20030;-72
2022/04/21 13:53:54;;;;;;;3.58;2.78;;;;;;;;;;4991173;28;20414;-72
2022/04/21 13:56:22;;;;;;;2.15;1.92;;;;;;;;;;4992083;28;20033;-72
2022/04/21 13:58:48;;;;;;;3.28;2.03;;;;;;;;;;4991791;28;20492;-71
2022/04/21 14:01:16;;;;;;;4.55;1.90;;;;;;;;;;4991895;28;20022;-72
2022/04/21 14:03:43;;;;;;;2.45;1.90;;;;;;;;;;4992742;28;20025;-72
2022/04/21 14:06:09;;;;;;;5.15;2.63;;;;;;;;;;4991982;28;20031;-71
2022/04/21 14:08:36;;;;;;;2.60;2.10;;;;;;;;;;4991312;28;20031;-72
2022/04/21 14:11:03;;;;;;;2.13;1.83;;;;;;;;;;4991675;28;20022;-71
2022/04/21 14:13:30;;;;;;;3.97;1.98;;;;;;;;;;4991870;28;20025;-72
2022/04/21 14:15:56;;;;;;;2.03;1.60;;;;;;;;;;5004464;28;20091;-72
2022/04/21 14:18:23;;;;;;;2.00;1.55;;;;;;;;;;4987833;28;20145;-72
2022/04/21 14:20:52;;;;;;;2.65;1.75;;;;;;;;;;4991512;28;20026;-72
2022/04/21 14:23:19;;;;;;;5.03;2.70;;;;;;;;;;4991304;28;20022;-71
2022/04/21 14:25:46;;;;;;;3.40;1.80;;;;;;;;;;4991625;28;20045;-71
2022/04/21 14:28:12;;;;;;;2.90;2.10;;;;;;;;;;4974484;28;20046;-71
2022/04/21 14:30:39;;;;;;;5.68;2.60;;;;;;;;;;4987725;28;20113;-71
2022/04/21 14:33:05;;;;;;;6.05;1.73;;;;;;;;;;4987064;28;20090;-71
2022/04/21 14:35:31;;;;;;;1.90;1.48;;;;;;;;;;4987223;28;20034;-71
2022/04/21 14:46:13;;;;;;;4.45;2.00;;;;;;;;;;4990772;28;20068;-72
2022/04/21 14:48:39;;;;;;;2.88;1.30;;;;;;;;;;4989061;28;20041;-72
2022/04/21 14:51:06;;;;;;;4.93;1.75;;;;;;;;;;4990922;28;20033;-72
2022/04/21 14:53:32;;;;;;;11.70;4.72;;;;;;;;;;4986574;28;20041;-71
2022/04/21 14:55:59;;;;;;;4.63;2.13;;;;;;;;;;4986468;28;20011;-71
2022/04/21 14:58:25;;;;;;;2.60;2.10;;;;;;;;;;4991153;28;20031;-71
2022/04/21 15:00:52;;;;;;;3.38;2.05;;;;;;;;;;4991058;28;20496;-71
2022/04/21 15:03:18;;;;;;;6.35;3.67;;;;;;;;;;4991654;28;20030;-71
2022/04/21 15:05:44;;;;;;;19.23;9.60;;;;;;;;;;4993542;28;20027;-71
2022/04/21 15:08:11;;;;;;;9.60;6.15;;;;;;;;;;4994319;28;20030;-71
2022/04/21 15:10:44;;;;;;;13.57;8.25;;;;;;;;;;4994578;28;20018;-71
2022/04/21 15:13:10;;;;;;;9.70;6.18;;;;;;;;;;4994653;28;20030;-71
2022/04/21 15:15:37;;;;;;;6.18;3.72;;;;;;;;;;4995236;28;20034;-71
2022/04/21 15:18:04;;;;;;;2.83;2.55;;;;;;;;;;5000990;28;20505;-71
2022/04/21 15:20:31;;;;;;;6.20;3.35;;;;;;;;;;4994972;28;20028;-71
2022/04/21 15:22:59;;;;;;;3.75;2.65;;;;;;;;;;4990411;28;20023;-71
2022/04/21 15:25:26;;;;;;;5.65;3.20;;;;;;;;;;4992962;28;20065;-71
2022/04/21 15:27:54;;;;;;;11.02;5.78;;;;;;;;;;4991949;28;20048;-71
2022/04/21 15:30:20;;;;;;;5.97;3.50;;;;;;;;;;4990388;28;20502;-71
2022/04/21 15:32:47;;;;;;;3.25;2.95;;;;;;;;;;4990560;28;20034;-71
2022/04/21 15:35:13;;;;;;;2.70;2.40;;;;;;;;;;4993656;28;20033;-71
2022/04/21 15:37:43;;;;;;;3.08;2.30;;;;;;;;;;4994525;28;20032;-71
2022/04/21 15:40:10;;;;;;;2.92;2.53;;;;;;;;;;4994136;28;20084;-71
2022/04/21 15:42:38;;;;;;;2.53;2.33;;;;;;;;;;4994548;28;20030;-71
2022/04/21 15:45:05;;;;;;;4.55;3.38;;;;;;;;;;4993906;28;20042;-71
2022/04/21 15:47:32;;;;;;;3.65;2.63;;;;;;;;;;4993909;28;20050;-71
2022/04/21 15:49:58;;;;;;;2.60;2.40;;;;;;;;;;4993807;28;20036;-71
2022/04/21 15:52:25;;;;;;;4.60;2.75;;;;;;;;;;4993931;28;20023;-71
2022/04/21 16:00:21;;;;;;;8.90;2.83;;;;;;;;;;4989484;28;20048;-71
2022/04/21 16:02:47;;;;;;;3.08;2.80;;;;;;;;;;4989461;28;20031;-71
2022/04/21 16:05:15;;;;;;;3.30;3.03;;;;;;;;;;4989380;28;20030;-71